createdAt,value
2018-09-13T00:01:16.712Z,60.30
2018-09-13T00:03:44.231Z,59.60
2018-09-13T00:06:14.391Z,59.60
2018-09-13T00:11:09.296Z,59.70
2018-09-13T00:13:36.933Z,60.00
2018-09-13T00:16:04.424Z,60.00
2018-09-13T00:18:32.034Z,59.80
2018-09-13T00:20:59.567Z,59.70
2018-09-13T00:23:27.541Z,59.60
2018-09-13T00:25:55.192Z,60.10
2018-09-13T00:28:22.704Z,60.00
2018-09-13T00:30:50.193Z,60.10
2018-09-13T00:33:17.809Z,59.90
2018-09-13T00:35:45.286Z,60.00
2018-09-13T00:38:13.222Z,60.10
2018-09-13T00:43:08.441Z,59.90
2018-09-13T00:45:36.215Z,60.20
2018-09-13T00:48:03.899Z,59.90
2018-09-13T00:50:31.517Z,60.30
2018-09-13T00:52:59.033Z,60.30
2018-09-13T00:55:26.571Z,60.30
2018-09-13T00:57:54.927Z,60.40
2018-09-13T01:00:23.164Z,60.40
2018-09-13T01:02:50.581Z,60.80
2018-09-13T01:05:18.075Z,60.60
2018-09-13T01:07:45.649Z,60.00
2018-09-13T01:10:13.907Z,59.80
2018-09-13T01:12:41.388Z,59.80
2018-09-13T01:15:09.712Z,59.40
2018-09-13T01:17:37.260Z,59.40
2018-09-13T01:20:04.822Z,58.70
2018-09-13T01:22:32.333Z,59.00
2018-09-13T01:24:59.789Z,59.50
2018-09-13T01:27:27.802Z,59.40
2018-09-13T01:29:56.202Z,59.50
2018-09-13T01:32:23.877Z,59.30
2018-09-13T01:34:51.933Z,59.50
2018-09-13T01:37:19.571Z,59.50
2018-09-13T01:39:47.110Z,59.50
2018-09-13T01:42:14.759Z,59.60
2018-09-13T01:44:42.582Z,60.10
2018-09-13T01:47:10.918Z,60.00
2018-09-13T01:49:38.568Z,59.30
2018-09-13T01:52:06.276Z,59.50
2018-09-13T01:54:33.730Z,59.10
2018-09-13T01:57:01.294Z,59.20
2018-09-13T01:59:29.380Z,59.20
2018-09-13T02:01:57.092Z,59.60
2018-09-13T02:04:25.221Z,59.80
2018-09-13T02:06:53.097Z,60.00
2018-09-13T02:09:20.653Z,60.20
2018-09-13T02:11:48.152Z,60.70
2018-09-13T02:14:15.679Z,60.40
2018-09-13T02:16:43.155Z,60.20
2018-09-13T02:19:10.628Z,60.10
2018-09-13T02:21:38.110Z,60.20
2018-09-13T02:24:05.377Z,60.20
2018-09-13T02:26:32.926Z,60.20
2018-09-13T02:29:00.666Z,60.40
2018-09-13T02:33:55.686Z,60.30
2018-09-13T02:36:23.175Z,60.90
2018-09-13T02:43:45.543Z,60.40
2018-09-13T02:46:13.321Z,60.00
2018-09-13T02:48:41.329Z,60.50
2018-09-13T02:51:08.853Z,59.60
2018-09-13T02:53:36.481Z,60.30
2018-09-13T02:56:03.967Z,60.10
2018-09-13T02:58:31.664Z,59.20
2018-09-13T03:00:59.185Z,59.10
2018-09-13T03:03:26.683Z,58.80
2018-09-13T03:05:54.308Z,59.40
2018-09-13T03:08:21.844Z,59.40
2018-09-13T03:10:49.310Z,59.90
2018-09-13T03:13:16.880Z,59.60
2018-09-13T03:20:39.514Z,59.90
2018-09-13T03:23:07.051Z,60.00
2018-09-13T03:25:34.678Z,60.50
2018-09-13T03:28:02.403Z,60.10
2018-09-13T03:30:30.541Z,60.10
2018-09-13T03:32:59.221Z,59.90
2018-09-13T03:35:26.762Z,59.70
2018-09-13T03:37:54.556Z,59.60
2018-09-13T03:40:22.181Z,59.60
2018-09-13T03:42:49.981Z,60.30
2018-09-13T03:45:17.423Z,59.60
2018-09-13T03:47:44.989Z,59.30
2018-09-13T03:50:12.520Z,59.30
2018-09-13T03:52:40.044Z,60.20
2018-09-13T03:55:07.561Z,59.70
2018-09-13T03:57:36.912Z,59.60
2018-09-13T04:00:04.628Z,59.70
2018-09-13T04:02:32.111Z,59.50
2018-09-13T04:04:59.565Z,59.50
2018-09-13T04:07:27.180Z,60.20
2018-09-13T04:09:54.751Z,60.50
2018-09-13T04:12:22.555Z,59.70
2018-09-13T04:14:50.108Z,60.10
2018-09-13T04:17:17.618Z,59.80
2018-09-13T04:19:46.051Z,60.50
2018-09-13T04:22:14.411Z,60.40
2018-09-13T04:24:42.589Z,60.10
2018-09-13T04:27:10.390Z,60.10
2018-09-13T04:29:37.935Z,60.00
2018-09-13T04:32:05.512Z,60.20
2018-09-13T04:34:33.053Z,59.90
2018-09-13T04:37:00.544Z,59.80
2018-09-13T04:39:28.194Z,59.80
2018-09-13T04:41:55.746Z,59.80
2018-09-13T04:44:23.621Z,59.70
2018-09-13T04:46:51.102Z,59.70
2018-09-13T04:49:18.594Z,59.70
2018-09-13T04:54:14.612Z,59.50
2018-09-13T04:56:42.994Z,59.40
2018-09-13T04:59:10.668Z,59.50
2018-09-13T05:01:39.972Z,59.20
2018-09-13T05:04:07.473Z,59.50
2018-09-13T05:06:35.134Z,59.30
2018-09-13T05:09:04.223Z,59.00
2018-09-13T05:11:31.714Z,59.00
2018-09-13T05:13:59.253Z,59.30
2018-09-13T05:16:26.873Z,59.50
2018-09-13T05:18:54.342Z,59.50
2018-09-13T05:21:23.173Z,59.30
2018-09-13T05:23:50.705Z,59.40
2018-09-13T05:26:18.223Z,59.50
2018-09-13T05:28:45.769Z,59.10
2018-09-13T05:31:13.343Z,59.30
2018-09-13T05:33:40.879Z,59.00
2018-09-13T05:36:08.563Z,58.90
2018-09-13T05:38:36.067Z,59.50
2018-09-13T05:41:03.705Z,59.10
2018-09-13T05:43:31.184Z,59.00
2018-09-13T05:45:58.651Z,59.40
2018-09-13T05:48:26.224Z,59.60
2018-09-13T05:50:53.728Z,60.20
2018-09-13T05:53:21.271Z,60.00
2018-09-13T05:55:48.794Z,59.80
2018-09-13T05:58:16.764Z,59.30
2018-09-13T06:00:49.968Z,59.50
2018-09-13T06:03:17.520Z,59.50
2018-09-13T06:05:52.180Z,59.70
2018-09-13T06:10:55.494Z,59.50
2018-09-13T06:13:32.045Z,59.30
2018-09-13T06:16:00.058Z,59.50
2018-09-13T06:18:29.836Z,59.90
2018-09-13T06:20:57.548Z,59.50
2018-09-13T06:23:25.079Z,60.00
2018-09-13T06:28:20.034Z,59.60
2018-09-13T06:30:48.079Z,59.40
2018-09-13T06:33:16.320Z,58.90
2018-09-13T06:35:43.830Z,59.10
2018-09-13T06:38:11.439Z,59.00
2018-09-13T06:40:38.945Z,59.30
2018-09-13T06:43:06.478Z,59.20
2018-09-13T06:45:34.030Z,59.30
2018-09-13T06:48:01.524Z,59.30
2018-09-13T06:50:29.037Z,59.50
2018-09-13T06:52:56.612Z,59.20
2018-09-13T06:55:24.116Z,59.10
2018-09-13T06:57:51.693Z,59.10
2018-09-13T07:00:19.166Z,58.90
2018-09-13T07:02:46.711Z,58.90
2018-09-13T07:05:14.204Z,59.30
2018-09-13T07:07:41.732Z,58.90
2018-09-13T07:10:09.343Z,59.20
2018-09-13T07:12:37.435Z,58.90
2018-09-13T07:15:05.620Z,58.60
2018-09-13T07:17:33.175Z,58.50
2018-09-13T07:20:00.812Z,58.60
2018-09-13T07:22:28.436Z,58.70
2018-09-13T07:24:55.873Z,59.10
2018-09-13T07:27:30.457Z,58.60
2018-09-13T07:30:01.801Z,58.70
2018-09-13T07:32:35.482Z,58.20
2018-09-13T07:35:08.191Z,58.40
2018-09-13T07:42:35.646Z,57.80
2018-09-13T07:45:03.594Z,57.60
2018-09-13T07:50:34.235Z,56.20
2018-09-13T07:55:49.702Z,55.20
2018-09-13T07:58:17.291Z,55.90
2018-09-13T08:00:44.876Z,56.00
2018-09-13T08:03:12.364Z,56.10
2018-09-13T08:05:40.116Z,55.70
2018-09-13T08:08:07.660Z,56.10
2018-09-13T08:10:37.199Z,56.80
2018-09-13T08:13:04.792Z,57.00
2018-09-13T08:15:32.352Z,56.80
2018-09-13T08:17:59.854Z,57.10
2018-09-13T08:20:27.340Z,57.40
2018-09-13T08:22:54.824Z,57.20
2018-09-13T08:25:22.471Z,57.30
2018-09-13T08:27:50.084Z,57.90
2018-09-13T08:30:17.832Z,57.30
2018-09-13T08:32:45.255Z,58.20
2018-09-13T08:35:12.887Z,58.00
2018-09-13T08:37:40.170Z,58.00
2018-09-13T08:40:08.497Z,58.90
2018-09-13T08:42:35.980Z,57.50
2018-09-13T08:45:03.575Z,59.00
2018-09-13T08:47:31.162Z,58.40
2018-09-13T08:57:23.408Z,57.60
2018-09-13T08:59:50.937Z,57.40
2018-09-13T09:02:18.644Z,58.40
2018-09-13T09:04:46.621Z,58.20
2018-09-13T09:07:14.418Z,57.60
2018-09-13T09:09:42.640Z,57.10
2018-09-13T09:12:10.483Z,57.40
2018-09-13T09:14:38.749Z,57.00
2018-09-13T09:17:06.496Z,56.80
2018-09-13T09:19:34.007Z,57.40
2018-09-13T09:22:01.647Z,57.00
2018-09-13T09:24:29.116Z,57.50
2018-09-13T09:26:56.674Z,57.10
2018-09-13T09:29:24.330Z,57.40
2018-09-13T09:31:51.676Z,57.20
2018-09-13T09:34:19.281Z,57.00
2018-09-13T09:36:46.837Z,56.90
2018-09-13T09:39:14.687Z,58.20
2018-09-13T09:41:42.684Z,57.40
2018-09-13T09:44:10.345Z,57.50
2018-09-13T09:46:38.370Z,56.80
2018-09-13T09:49:05.964Z,56.70
2018-09-13T09:51:33.510Z,56.00
2018-09-13T09:54:01.065Z,55.70
2018-09-13T09:56:28.601Z,55.80
2018-09-13T09:58:56.145Z,55.80
2018-09-13T10:01:29.406Z,55.30
2018-09-13T10:03:57.745Z,55.30
2018-09-13T10:06:25.281Z,56.40
2018-09-13T10:08:52.839Z,55.90
2018-09-13T10:11:20.432Z,55.40
2018-09-13T10:13:47.956Z,57.30
2018-09-13T10:16:21.267Z,57.40
2018-09-13T10:18:53.312Z,56.70
2018-09-13T10:21:26.541Z,58.30
2018-09-13T10:23:59.834Z,57.70
2018-09-13T10:27:32.759Z,57.90
2018-09-13T10:30:06.033Z,58.90
2018-09-13T10:32:39.155Z,59.40
2018-09-13T10:35:12.549Z,58.30
2018-09-13T10:37:45.702Z,57.50
2018-09-13T10:40:18.925Z,58.10
2018-09-13T10:42:52.197Z,56.80
2018-09-13T10:45:25.422Z,55.80
2018-09-13T10:47:58.546Z,56.40
2018-09-13T10:50:27.612Z,55.90
2018-09-13T10:52:57.830Z,55.80
2018-09-13T10:55:25.976Z,55.50
2018-09-13T10:57:53.565Z,55.40
2018-09-13T11:00:21.252Z,56.00
2018-09-13T11:02:48.882Z,55.40
2018-09-13T11:05:16.449Z,54.80
2018-09-13T11:07:43.988Z,54.60
2018-09-13T11:10:11.531Z,54.00
2018-09-13T11:12:44.731Z,54.00
2018-09-13T11:15:44.128Z,54.70
2018-09-13T11:18:11.640Z,54.20
2018-09-13T11:20:39.153Z,53.70
2018-09-13T11:23:06.761Z,54.20
2018-09-13T11:25:34.293Z,54.80
2018-09-13T11:28:01.856Z,54.40
2018-09-13T11:30:31.869Z,54.10
2018-09-13T11:32:59.425Z,54.40
2018-09-13T11:35:27.026Z,53.60
2018-09-13T11:37:54.601Z,53.90
2018-09-13T11:40:22.338Z,53.80
2018-09-13T11:42:49.797Z,54.00
2018-09-13T11:45:17.461Z,54.50
2018-09-13T11:47:45.211Z,54.30
2018-09-13T11:50:12.783Z,53.90
2018-09-13T11:52:49.259Z,55.70
2018-09-13T11:55:16.820Z,55.40
2018-09-13T11:57:44.396Z,55.40
2018-09-13T12:00:11.961Z,55.30
2018-09-13T12:02:39.423Z,55.00
2018-09-13T12:05:12.433Z,55.10
2018-09-13T12:07:39.953Z,55.50
2018-09-13T12:12:34.933Z,55.40
2018-09-13T12:15:02.581Z,55.40
2018-09-13T12:17:30.186Z,56.00
2018-09-13T12:19:57.810Z,55.40
2018-09-13T12:22:25.519Z,55.30
2018-09-13T12:24:53.053Z,55.90
2018-09-13T12:27:20.730Z,55.70
2018-09-13T12:29:48.220Z,55.60
2018-09-13T12:32:15.699Z,55.00
2018-09-13T12:34:43.254Z,56.10
2018-09-13T12:37:10.905Z,56.00
2018-09-13T12:39:38.477Z,55.90
2018-09-13T12:42:05.993Z,56.00
2018-09-13T12:44:33.539Z,56.50
2018-09-13T12:47:01.087Z,56.50
2018-09-13T12:49:28.701Z,57.30
2018-09-13T12:51:56.134Z,57.60
2018-09-13T12:54:23.692Z,57.20
2018-09-13T12:56:51.559Z,57.00
2018-09-13T12:59:18.903Z,57.70
2018-09-13T13:01:46.469Z,57.90
2018-09-13T13:04:14.020Z,57.90
2018-09-13T13:06:41.612Z,57.90
2018-09-13T13:09:09.834Z,59.30
2018-09-13T13:14:05.051Z,58.20
2018-09-13T13:16:32.636Z,57.80
2018-09-13T13:19:00.130Z,57.90
2018-09-13T13:21:27.668Z,58.80
2018-09-13T13:23:55.133Z,58.50
2018-09-13T13:26:22.647Z,59.30
2018-09-13T13:28:50.204Z,60.00
2018-09-13T13:31:18.374Z,59.60
2018-09-13T13:33:45.861Z,59.60
2018-09-13T13:36:13.510Z,59.70
2018-09-13T13:38:41.218Z,59.30
2018-09-13T13:41:08.878Z,59.50
2018-09-13T13:43:36.378Z,58.70
2018-09-13T13:46:03.963Z,58.30
2018-09-13T13:48:31.423Z,57.50
2018-09-13T13:50:58.968Z,57.40
2018-09-13T13:53:26.465Z,57.50
2018-09-13T13:58:21.678Z,56.80
2018-09-13T14:00:49.640Z,57.40
2018-09-13T14:03:17.154Z,56.00
2018-09-13T14:05:44.798Z,56.40
2018-09-13T14:08:12.343Z,57.10
2018-09-13T14:10:39.858Z,56.50
2018-09-13T14:18:02.356Z,56.00
2018-09-13T14:20:30.036Z,56.20
2018-09-13T14:22:57.449Z,56.20
2018-09-13T14:27:52.549Z,56.60
2018-09-13T14:30:20.070Z,56.10
2018-09-13T14:32:47.648Z,56.90
2018-09-13T14:35:15.217Z,56.80
2018-09-13T14:37:42.755Z,56.80
2018-09-13T14:40:10.359Z,57.60
2018-09-13T14:42:37.746Z,58.40
2018-09-13T14:45:05.364Z,57.80
2018-09-13T14:47:32.870Z,57.60
2018-09-13T14:50:00.391Z,58.20
2018-09-13T14:52:27.863Z,57.90
2018-09-13T14:54:55.419Z,58.10
2018-09-13T14:57:22.971Z,58.80
2018-09-13T14:59:50.444Z,58.40
2018-09-13T15:02:17.962Z,58.50
2018-09-13T15:04:45.498Z,58.30
2018-09-13T15:07:12.974Z,58.90
2018-09-13T15:09:40.560Z,58.70
2018-09-13T15:12:08.140Z,59.70
2018-09-13T15:14:35.695Z,59.50
2018-09-13T15:17:03.266Z,58.90
2018-09-13T15:19:30.852Z,59.20
2018-09-13T15:21:58.570Z,59.60
2018-09-13T15:24:26.229Z,59.80
2018-09-13T15:26:53.668Z,59.20
2018-09-13T15:29:21.287Z,59.20
2018-09-13T15:31:48.957Z,58.90
2018-09-13T15:34:16.455Z,58.70
2018-09-13T15:36:44.045Z,59.80
2018-09-13T15:39:12.515Z,58.50
2018-09-13T15:41:40.123Z,58.50
2018-09-13T15:44:07.786Z,58.40
2018-09-13T15:46:35.657Z,58.50
2018-09-13T15:49:03.518Z,59.10
2018-09-13T15:51:31.070Z,59.10
2018-09-13T15:53:58.589Z,59.00
2018-09-13T15:56:26.222Z,59.00
2018-09-13T15:58:54.813Z,59.00
2018-09-13T16:01:22.345Z,59.00
2018-09-13T16:03:49.960Z,59.10
2018-09-13T16:06:17.521Z,59.10
2018-09-13T16:08:45.145Z,58.80
2018-09-13T16:11:12.686Z,59.10
2018-09-13T16:13:40.250Z,59.00
2018-09-13T16:16:08.473Z,59.10
2018-09-13T16:18:36.001Z,59.10
2018-09-13T16:21:03.678Z,59.10
2018-09-13T16:23:31.156Z,58.80
2018-09-13T16:25:59.781Z,59.20
2018-09-13T16:28:27.390Z,58.50
2018-09-13T16:30:54.952Z,58.40
2018-09-13T16:33:22.624Z,58.00
2018-09-13T16:35:52.500Z,57.60
2018-09-13T16:38:28.892Z,57.60
2018-09-13T16:41:02.549Z,57.60
2018-09-13T16:48:45.813Z,57.60
2018-09-13T16:51:13.456Z,58.10
2018-09-13T16:53:41.139Z,58.30
2018-09-13T16:56:08.701Z,58.10
2018-09-13T16:58:36.457Z,58.10
2018-09-13T17:01:04.660Z,58.20
2018-09-13T17:03:32.249Z,58.00
2018-09-13T17:06:00.460Z,57.80
2018-09-13T17:08:28.144Z,58.10
2018-09-13T17:10:55.771Z,58.20
2018-09-13T17:13:23.279Z,58.50
2018-09-13T17:15:50.955Z,58.90
2018-09-13T17:18:18.547Z,58.90
2018-09-13T17:20:46.126Z,58.90
2018-09-13T17:23:13.757Z,59.20
2018-09-13T17:25:41.998Z,59.00
2018-09-13T17:28:10.479Z,59.30
2018-09-13T17:30:38.365Z,59.70
2018-09-13T17:33:06.026Z,60.00
2018-09-13T17:38:01.883Z,59.60
2018-09-13T17:40:29.629Z,59.80
2018-09-13T17:42:57.297Z,60.30
2018-09-13T17:45:25.017Z,59.70
2018-09-13T17:47:52.578Z,59.70
2018-09-13T17:50:20.198Z,59.90
2018-09-13T17:52:48.068Z,60.00
2018-09-13T17:55:15.917Z,60.20
2018-09-13T17:57:43.523Z,60.10
2018-09-13T18:00:12.996Z,60.20
2018-09-13T18:02:40.721Z,61.10
2018-09-13T18:05:09.351Z,61.20
2018-09-13T18:07:36.939Z,60.90
2018-09-13T18:10:05.123Z,60.90
2018-09-13T18:12:32.744Z,60.60
2018-09-13T18:15:00.474Z,60.80
2018-09-13T18:17:28.360Z,60.90
2018-09-13T18:19:56.167Z,61.10
2018-09-13T18:22:23.854Z,60.80
2018-09-13T18:24:52.494Z,60.60
2018-09-13T18:27:20.686Z,60.80
2018-09-13T18:29:48.261Z,60.70
2018-09-13T18:32:15.966Z,61.20
2018-09-13T18:34:43.584Z,60.90
2018-09-13T18:37:11.354Z,60.90
2018-09-13T18:39:38.940Z,60.80
2018-09-13T18:42:07.184Z,60.80
2018-09-13T18:44:34.738Z,60.50
2018-09-13T18:47:02.503Z,60.80
2018-09-13T18:49:30.052Z,60.60
2018-09-13T18:51:57.631Z,60.60
2018-09-13T18:54:25.232Z,61.40
2018-09-13T18:56:52.761Z,61.30
2018-09-13T18:59:20.362Z,61.70
2018-09-13T19:01:47.936Z,61.10
2018-09-13T19:04:15.621Z,61.60
2018-09-13T19:06:43.212Z,61.60
2018-09-13T19:09:11.290Z,61.50
2018-09-13T19:11:39.030Z,61.10
2018-09-13T19:16:34.538Z,61.20
2018-09-13T19:19:02.195Z,61.30
2018-09-13T19:21:30.042Z,62.10
2018-09-13T19:23:57.642Z,62.30
2018-09-13T19:26:25.364Z,62.20
2018-09-13T19:28:53.124Z,62.80
2018-09-13T19:31:20.791Z,62.20
2018-09-13T19:33:48.368Z,62.20
2018-09-13T19:36:16.535Z,62.20
2018-09-13T19:38:44.133Z,62.20
2018-09-13T19:41:13.394Z,62.20
2018-09-13T19:43:41.044Z,62.20
2018-09-13T19:46:08.788Z,62.20
2018-09-13T19:48:36.685Z,62.20
2018-09-13T19:51:04.526Z,62.20
2018-09-13T19:53:32.225Z,62.20
2018-09-13T19:55:59.861Z,62.20
2018-09-13T19:58:27.470Z,62.20
2018-09-13T20:00:54.957Z,62.20
2018-09-13T20:03:23.300Z,62.20
2018-09-13T20:05:51.021Z,62.20
2018-09-13T20:08:18.773Z,62.10
2018-09-13T20:10:46.385Z,62.20
2018-09-13T20:13:13.917Z,62.20
2018-09-13T20:15:41.560Z,62.20
2018-09-13T20:18:09.934Z,62.30
2018-09-13T20:20:38.119Z,62.40
2018-09-13T20:23:05.881Z,62.10
2018-09-13T20:25:34.087Z,62.80
2018-09-13T20:28:01.772Z,62.50
2018-09-13T20:30:29.711Z,62.30
2018-09-13T20:32:57.350Z,62.30
2018-09-13T20:35:24.984Z,62.50
2018-09-13T20:37:52.462Z,62.50
2018-09-13T20:40:20.692Z,62.60
2018-09-13T20:42:49.509Z,62.70
2018-09-13T20:45:17.022Z,62.70
2018-09-13T20:47:44.707Z,62.50
2018-09-13T20:50:14.179Z,63.00
2018-09-13T20:52:42.660Z,62.90
2018-09-13T20:55:10.242Z,62.90
2018-09-13T20:57:37.865Z,62.80
2018-09-13T21:00:05.912Z,62.80
2018-09-13T21:02:33.437Z,62.70
2018-09-13T21:05:02.276Z,62.60
2018-09-13T21:07:31.562Z,63.00
2018-09-13T21:10:00.155Z,63.30
2018-09-13T21:12:28.503Z,63.20
2018-09-13T21:14:57.253Z,62.80
2018-09-13T21:17:26.825Z,63.10
2018-09-13T21:19:54.919Z,63.00
2018-09-13T21:22:22.404Z,63.10
2018-09-13T21:24:50.141Z,63.20
2018-09-13T21:27:20.182Z,63.30
2018-09-13T21:29:48.336Z,63.70
2018-09-13T21:32:15.893Z,64.00
2018-09-13T21:34:43.388Z,64.30
2018-09-13T21:37:10.969Z,65.00
2018-09-13T21:39:39.811Z,64.10
2018-09-13T21:42:07.876Z,63.80
2018-09-13T21:44:36.360Z,64.00
2018-09-13T21:47:06.023Z,64.30
2018-09-13T21:49:33.651Z,63.90
2018-09-13T21:52:02.493Z,64.00
2018-09-13T21:59:26.534Z,64.90
2018-09-13T22:01:54.211Z,65.00
2018-09-13T22:04:21.971Z,64.70
2018-09-13T22:06:53.973Z,64.40
2018-09-13T22:11:50.174Z,65.10
2018-09-13T22:14:18.040Z,65.10
2018-09-13T22:19:13.678Z,65.50
2018-09-13T22:21:41.191Z,65.40
2018-09-13T22:24:08.750Z,65.40
2018-09-13T22:26:36.238Z,65.40
2018-09-13T22:29:04.428Z,65.40
2018-09-13T22:31:32.626Z,64.80
2018-09-13T22:34:00.264Z,64.20
2018-09-13T22:36:27.889Z,64.20
2018-09-13T22:38:55.475Z,64.10
2018-09-13T22:41:23.040Z,64.00
2018-09-13T22:43:52.363Z,63.90
2018-09-13T22:46:21.840Z,64.40
2018-09-13T22:48:49.970Z,65.30
2018-09-13T22:51:18.401Z,65.30
2018-09-13T22:53:46.223Z,65.30
2018-09-13T22:56:14.400Z,65.20
2018-09-13T22:58:41.891Z,65.30
2018-09-13T23:01:09.720Z,65.20
2018-09-13T23:03:37.352Z,65.20
2018-09-13T23:11:01.670Z,64.90
2018-09-13T23:13:29.320Z,64.60
2018-09-13T23:15:57.546Z,64.60
2018-09-13T23:18:25.045Z,64.50
2018-09-13T23:20:53.536Z,64.80
2018-09-13T23:23:20.996Z,65.20
2018-09-13T23:25:48.633Z,64.70
2018-09-13T23:28:16.146Z,64.30
2018-09-13T23:30:43.783Z,63.90
2018-09-13T23:33:11.353Z,64.60
2018-09-13T23:35:38.867Z,64.00
2018-09-13T23:38:06.508Z,64.00
2018-09-13T23:40:34.180Z,64.50
2018-09-13T23:43:01.575Z,63.70
2018-09-13T23:45:29.297Z,63.50
2018-09-13T23:47:57.435Z,63.50
2018-09-13T23:50:25.037Z,63.60
2018-09-13T23:52:52.550Z,63.80
2018-09-13T23:55:20.761Z,63.80
2018-09-13T23:57:48.294Z,64.10
